Time;durP1;ratioP1;P1;durP2;ratioP2;P2;SDS_P1;SDS_P2;PMS_P1;PMS_P2;Temp;Humidity;BMP_temperature;BMP_pressure;BME280_temperature;BME280_humidity;BME280_pressure;Samples;Min_cycle;Max_cycle;Signal;HPM_P1;HPM_P2
2021/06/27 00:02:06;;;;;;;9.38;8.57;;;;;;;16.65;77.53;101629.41;4995694;28;20489;-75
2021/06/27 00:04:31;;;;;;;12.02;9.70;;;;;;;16.44;78.14;101640.53;4995659;28;20105;-75
2021/06/27 00:06:57;;;;;;;9.85;8.95;;;;;;;16.39;79.41;101641.50;4979321;28;20342;-75
2021/06/27 00:09:22;;;;;;;10.52;9.63;;;;;;;16.49;78.25;101636.00;4996815;28;20509;-75
2021/06/27 00:11:47;;;;;;;10.50;9.70;;;;;;;16.17;78.62;101635.91;4979543;28;20027;-74
2021/06/27 00:14:14;;;;;;;10.25;9.05;;;;;;;16.24;79.03;101641.91;4995290;28;20070;-74
2021/06/27 00:16:39;;;;;;;9.70;8.88;;;;;;;16.20;79.21;101637.63;4995682;28;20117;-74
2021/06/27 00:19:05;;;;;;;9.88;8.98;;;;;;;16.01;79.52;101645.94;4995680;28;20169;-74
2021/06/27 00:21:31;;;;;;;10.30;9.40;;;;;;;16.14;78.96;101632.47;4978978;28;20570;-74
2021/06/27 00:23:56;;;;;;;10.00;9.05;;;;;;;16.26;78.24;101632.16;4995001;28;20510;-74
2021/06/27 00:26:24;;;;;;;10.88;9.88;;;;;;;16.39;77.39;101625.69;4995488;28;20026;-74
2021/06/27 00:28:51;;;;;;;9.55;8.75;;;;;;;16.48;77.22;101624.56;4995364;28;20096;-74
2021/06/27 00:31:16;;;;;;;9.93;9.13;;;;;;;16.42;77.71;101631.81;4979118;28;20033;-75
2021/06/27 00:33:41;;;;;;;9.45;8.45;;;;;;;16.31;77.72;101630.28;4995040;28;20328;-75
2021/06/27 00:36:08;;;;;;;9.25;8.48;;;;;;;16.30;78.24;101628.56;4979091;28;20346;-74
2021/06/27 00:38:34;;;;;;;8.40;7.60;;;;;;;16.41;77.86;101624.78;4978892;28;20033;-74
2021/06/27 00:40:59;;;;;;;9.48;8.68;;;;;;;16.56;76.90;101620.00;4995403;28;20033;-75
2021/06/27 00:43:24;;;;;;;10.07;9.02;;;;;;;16.51;77.08;101627.16;4994752;28;20116;-75
2021/06/27 00:45:50;;;;;;;8.88;8.13;;;;;;;16.23;78.15;101627.84;4978324;28;20323;-74
2021/06/27 00:48:15;;;;;;;9.65;8.75;;;;;;;16.12;79.03;101624.63;5011226;28;20351;-74
2021/06/27 00:50:50;;;;;;;10.90;9.80;;;;;;;15.82;80.57;101631.50;4995741;28;20389;-74
2021/06/27 00:53:16;;;;;;;10.52;9.63;;;;;;;15.67;81.07;101622.13;4993871;28;20029;-74
2021/06/27 00:55:42;;;;;;;11.80;10.70;;;;;;;15.72;80.46;101625.53;4995169;28;20113;-74
2021/06/27 00:58:08;;;;;;;11.55;10.07;;;;;;;15.77;80.74;101623.66;5010749;28;20086;-74
2021/06/27 01:00:42;;;;;;;10.27;9.35;;;;;;;15.93;79.47;101624.19;4995103;28;20481;-74
2021/06/27 01:03:08;;;;;;;10.23;9.32;;;;;;;15.97;79.79;101625.84;4995542;28;20026;-74
2021/06/27 01:05:38;;;;;;;9.50;8.55;;;;;;;15.97;79.52;101617.94;4994754;28;20340;-74
2021/06/27 01:08:04;;;;;;;10.07;9.15;;;;;;;16.16;78.44;101620.16;4978361;28;20427;-74
2021/06/27 01:10:29;;;;;;;10.50;9.65;;;;;;;16.13;77.99;101622.84;4994904;28;20046;-74
2021/06/27 01:12:55;;;;;;;9.40;8.50;;;;;;;16.14;78.42;101620.19;4993934;28;20452;-74
2021/06/27 01:15:21;;;;;;;8.95;8.30;;;;;;;15.80;79.63;101622.75;4978357;28;20038;-74
2021/06/27 01:17:49;;;;;;;10.95;9.95;;;;;;;15.68;80.52;101616.84;4978414;28;20101;-74
2021/06/27 01:20:20;;;;;;;10.02;9.10;;;;;;;15.68;80.08;101621.25;4995216;28;20018;-74
2021/06/27 01:22:46;;;;;;;10.20;9.30;;;;;;;15.66;80.16;101616.00;4994899;28;20026;-74
2021/06/27 01:25:13;;;;;;;9.98;9.07;;;;;;;15.91;79.24;101614.59;4994343;28;20041;-74
2021/06/27 01:27:39;;;;;;;9.40;8.60;;;;;;;15.99;78.56;101617.91;4994748;28;20038;-74
2021/06/27 01:30:09;;;;;;;10.07;9.27;;;;;;;15.99;79.14;101613.53;4995821;28;20404;-75
2021/06/27 01:32:35;;;;;;;10.25;9.30;;;;;;;16.10;77.92;101613.25;5009858;28;20057;-75
2021/06/27 01:35:02;;;;;;;10.18;9.27;;;;;;;16.07;78.59;101609.81;4993115;28;20320;-74
2021/06/27 01:37:27;;;;;;;10.13;9.05;;;;;;;15.61;80.12;101615.25;4994256;28;20030;-74
2021/06/27 01:39:52;;;;;;;10.40;9.38;;;;;;;15.44;81.67;101612.13;4976417;28;20057;-74
2021/06/27 01:42:18;;;;;;;10.90;9.98;;;;;;;15.33;81.63;101618.47;4994223;28;20436;-75
2021/06/27 01:44:43;;;;;;;11.95;10.77;;;;;;;15.23;81.65;101619.59;4977224;28;20030;-74
2021/06/27 01:47:08;;;;;;;10.98;9.85;;;;;;;15.34;82.30;101614.94;4977672;28;20077;-74
2021/06/27 01:49:33;;;;;;;11.20;10.13;;;;;;;15.61;79.87;101619.63;4993063;28;20029;-74
2021/06/27 01:51:59;;;;;;;11.10;10.00;;;;;;;15.71;79.43;101608.00;4993889;28;20026;-74
2021/06/27 01:54:24;;;;;;;10.35;9.35;;;;;;;15.71;79.34;101613.25;4993161;28;20042;-75
2021/06/27 01:56:51;;;;;;;9.43;8.57;;;;;;;15.83;78.50;101605.09;4993344;28;20018;-75
2021/06/27 01:59:16;;;;;;;9.93;9.02;;;;;;;15.80;78.47;101601.66;4993484;28;20037;-74
2021/06/27 02:01:42;;;;;;;9.90;9.05;;;;;;;15.71;79.54;101598.31;4993432;28;20367;-74
2021/06/27 02:04:08;;;;;;;10.82;9.73;;;;;;;15.38;80.50;101605.22;4977277;28;20313;-74
2021/06/27 02:06:40;;;;;;;10.38;9.43;;;;;;;15.32;81.30;101595.69;4994547;28;20474;-75
2021/06/27 02:09:08;;;;;;;11.82;10.73;;;;;;;15.10;81.48;101595.28;4977485;28;20030;-74
2021/06/27 02:11:34;;;;;;;10.52;9.63;;;;;;;14.96;82.54;101595.56;4993036;28;20054;-74
2021/06/27 02:14:00;;;;;;;9.85;9.02;;;;;;;15.26;81.54;101593.19;4993446;28;20073;-74
2021/06/27 02:16:28;;;;;;;10.15;9.25;;;;;;;15.48;79.91;101595.34;4993330;28;20355;-75
2021/06/27 02:18:53;;;;;;;9.40;8.60;;;;;;;15.58;79.46;101596.88;4993711;28;20424;-75
2021/06/27 02:21:20;;;;;;;9.85;8.98;;;;;;;15.56;79.91;101598.69;4976891;28;20030;-75
2021/06/27 02:23:46;;;;;;;11.48;10.38;;;;;;;15.13;81.84;101599.59;4994302;28;20491;-75
2021/06/27 02:26:12;;;;;;;11.10;10.13;;;;;;;15.15;82.20;101592.56;4993225;28;20443;-74
2021/06/27 02:28:37;;;;;;;10.07;9.05;;;;;;;15.34;80.90;101588.63;4977198;28;20026;-74
2021/06/27 02:31:03;;;;;;;11.02;9.98;;;;;;;15.53;79.51;101585.59;4976949;28;20037;-75
2021/06/27 02:33:30;;;;;;;11.40;10.32;;;;;;;15.29;80.97;101590.47;4994256;28;20022;-75
2021/06/27 02:35:56;;;;;;;11.43;10.32;;;;;;;15.03;82.65;101586.63;4992776;28;20321;-74
2021/06/27 02:38:22;;;;;;;13.70;11.05;;;;;;;15.00;82.79;101588.47;4993161;28;20385;-75
2021/06/27 02:40:47;;;;;;;9.90;9.18;;;;;;;15.30;81.31;101584.31;4993189;28;20026;-75
2021/06/27 02:43:14;;;;;;;10.88;9.88;;;;;;;15.35;81.20;101581.59;5009576;28;20324;-75
2021/06/27 02:45:40;;;;;;;11.27;10.20;;;;;;;15.19;82.34;101583.69;4993758;28;20026;-75
2021/06/27 02:48:06;;;;;;;11.23;10.18;;;;;;;15.45;80.42;101579.63;4994567;28;20325;-75
2021/06/27 02:50:32;;;;;;;10.48;9.45;;;;;;;15.59;79.94;101584.59;4976905;28;20125;-75
2021/06/27 02:52:57;;;;;;;11.00;9.80;;;;;;;15.68;79.56;101582.59;4976379;28;20030;-74
2021/06/27 02:55:23;;;;;;;10.90;9.82;;;;;;;15.53;79.71;101588.22;4994361;28;20037;-74
2021/06/27 02:57:49;;;;;;;9.68;8.88;;;;;;;15.38;80.39;101592.06;4994003;28;20101;-74
2021/06/27 03:00:16;;;;;;;9.73;8.93;;;;;;;15.29;80.64;101590.47;4993232;28;20030;-75
2021/06/27 03:02:42;;;;;;;10.52;9.63;;;;;;;15.31;80.94;101588.69;4975996;28;20029;-74
2021/06/27 03:05:08;;;;;;;10.68;9.65;;;;;;;15.59;79.88;101592.47;5009712;28;20130;-74
2021/06/27 03:07:34;;;;;;;9.32;8.43;;;;;;;15.55;80.58;101591.69;4992900;28;20026;-74
2021/06/27 03:09:59;;;;;;;9.32;8.30;;;;;;;15.69;79.47;101594.88;4997157;28;20076;-74
2021/06/27 03:12:25;;;;;;;9.32;8.43;;;;;;;15.83;79.03;101593.72;4980050;28;20034;-74
2021/06/27 03:14:50;;;;;;;9.30;8.43;;;;;;;15.84;78.35;101583.13;4996713;28;20052;-75
2021/06/27 03:17:15;;;;;;;9.43;8.73;;;;;;;15.91;78.21;101583.84;4997742;28;20028;-75
2021/06/27 03:19:40;;;;;;;9.77;8.88;;;;;;;15.79;78.80;101584.97;4996787;28;20431;-74
2021/06/27 03:22:06;;;;;;;9.60;8.80;;;;;;;15.46;79.98;101586.59;4996798;28;20018;-74
2021/06/27 03:24:31;;;;;;;8.95;8.25;;;;;;;15.60;80.15;101584.53;4996600;28;20367;-74
2021/06/27 03:26:56;;;;;;;9.18;8.38;;;;;;;15.75;79.59;101577.16;4996519;28;20502;-75
2021/06/27 03:29:22;;;;;;;9.27;8.40;;;;;;;15.88;78.96;101583.91;4996659;28;20332;-75
2021/06/27 03:31:47;;;;;;;10.50;9.50;;;;;;;15.54;80.11;101593.44;4996535;28;20423;-74
2021/06/27 03:34:12;;;;;;;10.13;9.23;;;;;;;15.47;80.73;101588.34;4980257;28;20030;-74
2021/06/27 03:36:38;;;;;;;9.60;8.90;;;;;;;15.65;80.17;101587.94;4997402;28;20027;-74
2021/06/27 03:39:06;;;;;;;9.63;8.55;;;;;;;15.85;79.54;101586.63;4997633;28;20335;-75
2021/06/27 03:41:48;;;;;;;9.68;8.75;;;;;;;15.93;78.98;101592.56;4996383;28;20030;-75
2021/06/27 03:44:13;;;;;;;10.10;9.20;;;;;;;15.89;79.61;101590.91;4996423;28;20420;-75
2021/06/27 03:46:39;;;;;;;9.10;8.40;;;;;;;15.93;79.07;101592.56;4979925;28;20084;-75
2021/06/27 03:49:04;;;;;;;9.40;8.70;;;;;;;16.04;78.32;101587.91;4980154;28;20117;-75
2021/06/27 03:51:30;;;;;;;10.50;8.82;;;;;;;16.08;78.39;101588.69;4979821;28;20120;-74
2021/06/27 03:53:56;;;;;;;9.73;8.93;;;;;;;16.07;78.62;101586.09;4979189;28;20045;-74
2021/06/27 03:56:21;;;;;;;11.68;8.77;;;;;;;15.94;79.20;101588.16;4996197;28;20026;-74
2021/06/27 03:58:47;;;;;;;10.25;9.27;;;;;;;16.05;78.93;101591.41;4979698;28;20440;-75
2021/06/27 04:01:13;;;;;;;10.02;9.23;;;;;;;15.75;81.03;101585.06;4996198;28;20037;-75
2021/06/27 04:03:38;;;;;;;9.98;9.18;;;;;;;15.65;81.16;101592.31;4995480;28;20113;-75
2021/06/27 04:06:04;;;;;;;11.55;10.27;;;;;;;15.58;81.27;101596.88;4979760;28;20032;-75
2021/06/27 04:08:30;;;;;;;10.43;9.60;;;;;;;15.69;81.69;101586.97;4996916;28;20442;-74
2021/06/27 04:10:58;;;;;;;11.27;10.27;;;;;;;15.75;82.08;101592.97;4996882;28;20050;-74
2021/06/27 04:13:28;;;;;;;10.30;9.40;;;;;;;15.74;82.07;101592.13;4996465;28;20347;-75
2021/06/27 04:15:54;;;;;;;9.05;8.40;;;;;;;16.03;80.24;101596.72;4995781;28;20033;-75
2021/06/27 04:18:19;;;;;;;10.15;9.25;;;;;;;16.19;80.01;101598.97;4995755;28;20567;-75
2021/06/27 04:20:45;;;;;;;10.55;9.75;;;;;;;16.13;80.42;101585.94;4994283;28;20026;-75
2021/06/27 04:23:10;;;;;;;10.02;9.13;;;;;;;16.27;79.55;101601.41;4995305;28;20022;-75
2021/06/27 04:25:36;;;;;;;10.82;9.75;;;;;;;16.36;77.21;101595.88;4979343;28;20027;-74
2021/06/27 04:28:02;;;;;;;9.93;9.15;;;;;;;16.49;76.48;101591.16;4995609;28;20027;-75
2021/06/27 04:30:27;;;;;;;10.70;9.80;;;;;;;16.37;77.53;101595.88;4995542;28;20022;-75
2021/06/27 04:32:53;;;;;;;10.75;9.70;;;;;;;16.37;77.21;101601.16;4995825;28;20033;-75
2021/06/27 04:35:18;;;;;;;11.93;10.73;;;;;;;16.38;77.42;101588.81;4996574;28;20026;-74
2021/06/27 04:37:43;;;;;;;12.05;10.90;;;;;;;16.43;77.48;101588.69;4979175;28;20030;-74
2021/06/27 04:40:09;;;;;;;12.45;11.25;;;;;;;16.29;77.46;101592.56;4978828;28;20025;-75
2021/06/27 04:42:35;;;;;;;12.25;11.15;;;;;;;16.56;76.75;101587.44;4994917;28;20108;-74
2021/06/27 04:45:00;;;;;;;12.07;10.93;;;;;;;16.30;78.15;101591.66;4995138;28;20030;-74
2021/06/27 04:47:25;;;;;;;11.30;10.30;;;;;;;16.39;77.81;101586.13;4979036;28;20109;-75
2021/06/27 04:49:51;;;;;;;11.45;10.35;;;;;;;16.66;75.62;101581.03;4978619;28;20033;-74
2021/06/27 04:52:16;;;;;;;12.07;10.15;;;;;;;16.71;75.97;101571.22;4995074;28;20112;-74
2021/06/27 04:54:41;;;;;;;11.07;9.90;;;;;;;16.73;76.12;101579.94;4994603;28;20095;-74
2021/06/27 04:57:07;;;;;;;10.73;9.75;;;;;;;16.68;75.30;101579.22;4996195;28;20043;-74
2021/06/27 04:59:32;;;;;;;10.60;9.68;;;;;;;16.35;77.46;101581.00;4994738;28;20077;-74
2021/06/27 05:01:58;;;;;;;12.30;11.00;;;;;;;16.51;77.00;101587.59;4995034;28;20379;-74
2021/06/27 05:04:23;;;;;;;11.70;10.60;;;;;;;16.37;77.56;101581.81;4994525;28;20026;-74
2021/06/27 05:06:48;;;;;;;12.10;10.98;;;;;;;16.66;76.60;101582.78;4994844;28;20049;-75
2021/06/27 05:09:14;;;;;;;10.95;9.88;;;;;;;16.70;76.68;101587.97;4994502;28;20030;-75
2021/06/27 05:11:39;;;;;;;11.80;10.60;;;;;;;16.67;77.10;101590.66;4995609;28;20404;-75
2021/06/27 05:14:06;;;;;;;11.90;10.70;;;;;;;16.82;75.88;101593.78;4995078;28;20172;-74
2021/06/27 05:16:31;;;;;;;12.07;11.00;;;;;;;16.68;77.23;101587.13;4995875;28;20030;-74
2021/06/27 05:18:56;;;;;;;13.23;11.82;;;;;;;16.66;76.13;101586.31;4994590;28;20421;-74
2021/06/27 05:21:22;;;;;;;12.13;10.93;;;;;;;16.98;75.89;101584.56;4978318;28;20415;-74
2021/06/27 05:23:47;;;;;;;14.20;12.05;;;;;;;16.83;76.69;101590.25;4994128;28;20113;-74
2021/06/27 05:26:12;;;;;;;14.48;12.98;;;;;;;17.06;75.47;101590.47;4996149;28;20053;-74
2021/06/27 05:28:38;;;;;;;14.93;13.30;;;;;;;17.19;75.42;101584.84;4996654;28;20113;-74
2021/06/27 05:31:05;;;;;;;14.35;12.85;;;;;;;16.77;77.09;101588.66;4978583;28;20153;-74
2021/06/27 05:33:31;;;;;;;14.75;13.35;;;;;;;16.90;76.72;101586.56;4995094;28;20026;-74
2021/06/27 05:35:56;;;;;;;15.27;13.75;;;;;;;16.83;76.51;101590.25;4993723;28;20328;-74
2021/06/27 05:38:21;;;;;;;14.10;12.35;;;;;;;17.08;76.21;101592.22;5005403;28;20060;-74
2021/06/27 05:40:47;;;;;;;13.45;12.07;;;;;;;17.34;75.31;101586.16;5013553;28;20138;-74
2021/06/27 05:43:12;;;;;;;14.68;12.25;;;;;;;17.76;72.01;101584.88;5014394;28;20022;-74
2021/06/27 05:45:37;;;;;;;13.30;10.75;;;;;;;17.86;72.12;101584.53;4996710;28;20029;-74
2021/06/27 05:48:03;;;;;;;12.38;11.15;;;;;;;18.18;70.66;101587.03;5013476;28;20022;-74
2021/06/27 05:50:28;;;;;;;12.43;11.23;;;;;;;18.07;71.32;101582.09;4996944;28;20026;-74
2021/06/27 05:52:54;;;;;;;11.25;10.15;;;;;;;17.96;71.71;101585.09;5012952;28;20026;-72
2021/06/27 05:55:19;;;;;;;11.02;9.88;;;;;;;18.41;68.69;101591.53;5013251;28;20381;-73
2021/06/27 05:57:47;;;;;;;11.43;10.32;;;;;;;18.28;69.04;101587.59;4996922;28;20091;-73
2021/06/27 06:00:13;;;;;;;10.93;9.93;;;;;;;18.45;68.95;101589.63;5011469;28;20030;-73
2021/06/27 06:02:38;;;;;;;11.20;10.15;;;;;;;18.74;66.34;101586.81;5012523;28;20034;-73
2021/06/27 06:05:03;;;;;;;11.60;10.60;;;;;;;18.28;69.04;101584.94;5013398;28;20352;-72
2021/06/27 06:07:29;;;;;;;12.52;10.48;;;;;;;18.53;68.15;101580.53;4996643;28;20116;-73
2021/06/27 06:09:54;;;;;;;10.48;9.57;;;;;;;18.87;65.96;101579.28;5013072;28;20111;-73
2021/06/27 06:12:19;;;;;;;11.15;10.15;;;;;;;18.82;67.65;101585.69;5010496;28;20474;-74
2021/06/27 06:14:45;;;;;;;11.80;10.77;;;;;;;19.08;66.29;101587.38;4993769;28;20085;-73
2021/06/27 06:17:10;;;;;;;10.50;9.40;;;;;;;19.81;64.09;101581.91;5012108;28;20021;-74
2021/06/27 06:19:37;;;;;;;11.15;10.05;;;;;;;19.42;64.64;101583.44;4996275;28;20084;-74
2021/06/27 06:22:02;;;;;;;11.25;9.90;;;;;;;18.78;67.79;101582.28;5012492;28;20032;-73
2021/06/27 06:24:28;;;;;;;16.45;9.80;;;;;;;18.51;68.51;101587.63;4996307;28;20034;-73
2021/06/27 06:26:53;;;;;;;11.38;10.27;;;;;;;18.91;66.71;101585.38;5010732;28;20025;-73
2021/06/27 06:29:18;;;;;;;10.77;9.70;;;;;;;19.10;66.13;101593.47;5012912;28;20021;-73
2021/06/27 06:31:44;;;;;;;10.65;9.65;;;;;;;18.98;67.53;101581.56;5010866;28;20320;-73
2021/06/27 06:34:09;;;;;;;11.55;10.30;;;;;;;18.73;66.88;101587.75;5009405;28;20018;-73
2021/06/27 06:36:34;;;;;;;10.23;9.18;;;;;;;19.18;66.54;101582.59;5009224;28;20037;-73
2021/06/27 06:39:00;;;;;;;10.07;9.18;;;;;;;19.89;63.48;101587.78;5008302;28;20034;-73
2021/06/27 06:41:25;;;;;;;8.60;7.95;;;;;;;20.02;63.09;101588.16;4993243;28;20050;-73
2021/06/27 06:43:53;;;;;;;9.70;8.90;;;;;;;20.69;60.07;101581.72;4993804;28;20109;-73
2021/06/27 06:46:18;;;;;;;10.23;9.27;;;;;;;19.72;64.65;101584.00;5013326;28;20055;-73
2021/06/27 06:48:43;;;;;;;10.55;9.43;;;;;;;19.39;65.23;101587.06;5013920;28;20109;-73
2021/06/27 06:51:09;;;;;;;10.20;9.30;;;;;;;20.10;63.46;101581.56;4997154;28;20343;-73
2021/06/27 06:53:34;;;;;;;9.40;8.70;;;;;;;21.79;57.75;101571.31;5014946;28;20080;-74
2021/06/27 06:56:02;;;;;;;7.82;7.22;;;;;;;22.95;53.52;101576.00;5017279;28;20116;-74
2021/06/27 06:58:30;;;;;;;8.45;7.75;;;;;;;21.22;58.82;101580.19;5017306;28;20493;-74
2021/06/27 07:00:59;;;;;;;7.00;6.45;;;;;;;22.94;54.43;101574.28;5017036;28;20480;-74
2021/06/27 07:03:26;;;;;;;9.13;8.43;;;;;;;21.14;58.77;101586.81;5009276;28;20034;-75
2021/06/27 07:05:51;;;;;;;7.95;7.45;;;;;;;20.81;60.30;101576.81;5003831;28;20362;-74
2021/06/27 07:08:17;;;;;;;9.02;7.47;;;;;;;21.61;58.32;101571.28;5036095;28;20115;-74
2021/06/27 07:10:42;;;;;;;7.50;6.95;;;;;;;24.50;50.15;101567.16;5025875;28;20032;-74
2021/06/27 07:13:08;;;;;;;7.25;6.85;;;;;;;26.02;44.71;101555.69;5017030;28;20407;-73
2021/06/27 07:15:33;;;;;;;6.97;6.15;;;;;;;24.92;48.42;101563.69;5016593;28;20036;-74
2021/06/27 07:17:58;;;;;;;6.18;5.78;;;;;;;26.72;43.87;101558.00;5016219;28;20141;-74
2021/06/27 07:20:24;;;;;;;6.47;6.07;;;;;;;26.56;42.96;101557.34;5014928;28;20053;-75
2021/06/27 07:22:49;;;;;;;6.13;5.72;;;;;;;25.63;45.54;101560.94;5014315;28;20398;-74
2021/06/27 07:25:14;;;;;;;6.22;5.82;;;;;;;26.26;44.00;101561.19;5016839;28;20038;-74
2021/06/27 07:27:40;;;;;;;7.65;7.18;;;;;;;25.73;44.95;101554.03;5015222;28;20380;-75
2021/06/27 07:30:07;;;;;;;5.43;5.13;;;;;;;28.72;38.33;101562.78;5014303;28;20343;-75
2021/06/27 07:32:32;;;;;;;7.00;6.55;;;;;;;28.04;39.93;101560.00;5014555;28;20096;-74
2021/06/27 07:34:57;;;;;;;6.05;5.65;;;;;;;27.05;41.30;101559.25;5012149;28;20034;-74
2021/06/27 07:37:23;;;;;;;6.00;5.25;;;;;;;28.97;38.53;101550.94;5009078;28;20033;-74
2021/06/27 07:39:48;;;;;;;8.10;7.60;;;;;;;26.04;44.09;101559.13;5012873;28;20076;-75
2021/06/27 07:42:13;;;;;;;6.85;6.25;;;;;;;27.49;40.92;101560.50;5015213;28;20380;-75
2021/06/27 07:44:39;;;;;;;7.70;7.13;;;;;;;24.72;47.60;101562.25;5013600;28;20100;-74
2021/06/27 07:47:04;;;;;;;6.28;5.88;;;;;;;26.34;44.03;101568.69;5012600;28;20375;-81
2021/06/27 07:49:30;;;;;;;7.18;6.68;;;;;;;25.08;46.26;101563.53;4997378;28;20420;-73
2021/06/27 07:51:55;;;;;;;7.85;7.35;;;;;;;24.39;48.24;101559.81;5014135;28;20030;-74
2021/06/27 07:54:20;;;;;;;6.80;6.10;;;;;;;25.50;47.03;101568.91;4996012;28;20124;-75
2021/06/27 07:56:46;;;;;;;7.90;7.30;;;;;;;26.43;43.65;101552.84;5013481;28;20021;-74
2021/06/27 07:59:13;;;;;;;7.60;7.20;;;;;;;24.54;48.39;101558.88;5014428;28;20056;-74
2021/06/27 08:01:38;;;;;;;6.63;6.13;;;;;;;27.90;40.02;101555.66;5016143;28;20022;-74
2021/06/27 08:04:04;;;;;;;5.07;4.78;;;;;;;30.85;34.88;101549.50;5014405;28;20121;-74
2021/06/27 08:06:29;;;;;;;6.07;5.57;;;;;;;29.02;38.71;101557.78;5014807;28;20028;-74
2021/06/27 08:08:54;;;;;;;7.55;6.95;;;;;;;29.54;36.20;101547.25;5014580;28;20123;-74
2021/06/27 08:11:20;;;;;;;5.95;5.55;;;;;;;29.51;37.19;101549.22;4995848;28;20302;-74
2021/06/27 08:13:45;;;;;;;6.43;6.03;;;;;;;28.78;38.12;101545.31;5015034;28;20331;-74
2021/06/27 08:16:10;;;;;;;6.63;6.10;;;;;;;29.12;37.43;101548.84;5012629;28;20022;-74
2021/06/27 08:18:36;;;;;;;7.20;6.70;;;;;;;28.81;37.38;101545.94;5015612;28;20157;-74
2021/06/27 08:21:01;;;;;;;8.65;7.22;;;;;;;24.84;48.43;101549.06;5013543;28;20033;-74
2021/06/27 08:23:27;;;;;;;7.15;6.65;;;;;;;29.26;36.65;101544.16;5014398;28;20097;-74
2021/06/27 08:25:52;;;;;;;8.70;7.60;;;;;;;27.02;40.80;101548.72;4997127;28;20030;-74
2021/06/27 08:28:17;;;;;;;5.57;5.28;;;;;;;27.47;41.75;101542.78;5015446;28;20112;-74
2021/06/27 08:30:42;;;;;;;6.82;6.22;;;;;;;27.43;41.29;101531.47;5013798;28;20107;-73
2021/06/27 08:33:09;;;;;;;7.70;7.15;;;;;;;26.08;44.59;101540.09;5012508;28;20054;-74
2021/06/27 08:35:35;;;;;;;8.02;7.50;;;;;;;25.33;45.12;101539.72;5013113;28;20104;-73
2021/06/27 08:38:00;;;;;;;8.60;7.95;;;;;;;23.71;51.09;101542.47;4995411;28;20027;-73
2021/06/27 08:40:26;;;;;;;6.20;5.80;;;;;;;24.45;49.07;101533.59;5007412;28;20031;-74
2021/06/27 08:42:51;;;;;;;7.22;6.72;;;;;;;23.23;52.61;101538.06;5021719;28;20022;-69
2021/06/27 08:45:17;;;;;;;8.20;7.57;;;;;;;22.25;55.13;101541.50;5015604;28;20026;-79
2021/06/27 08:47:43;;;;;;;8.25;7.63;;;;;;;22.51;54.87;101539.31;4998498;28;20068;-69
2021/06/27 08:50:11;;;;;;;8.68;8.05;;;;;;;22.16;54.81;101539.34;5015420;28;20033;-70
2021/06/27 08:52:37;;;;;;;8.75;8.05;;;;;;;22.07;55.45;101541.53;5013593;28;20034;-71
2021/06/27 08:55:04;;;;;;;9.55;8.77;;;;;;;22.20;54.33;101535.59;4997360;28;20054;-71
2021/06/27 08:57:30;;;;;;;11.95;9.02;;;;;;;22.20;54.26;101540.91;5021531;28;20021;-78
2021/06/27 08:59:57;;;;;;;8.52;7.82;;;;;;;22.95;51.75;101538.72;5012381;28;20014;-79
2021/06/27 09:02:23;;;;;;;7.85;7.25;;;;;;;23.00;52.10;101530.44;5023020;28;20084;-76
2021/06/27 09:04:48;;;;;;;8.27;7.47;;;;;;;23.36;51.50;101530.22;5019427;28;20431;-79
2021/06/27 09:07:30;;;;;;;7.97;7.43;;;;;;;23.22;51.30;101535.47;5015590;28;20028;-73
2021/06/27 09:10:01;;;;;;;7.65;7.07;;;;;;;23.50;50.93;101518.75;5014801;28;20036;-73
2021/06/27 09:12:26;;;;;;;7.07;6.60;;;;;;;23.39;51.56;101527.38;5013257;28;20025;-73
2021/06/27 09:14:54;;;;;;;6.88;6.43;;;;;;;24.16;50.19;101523.84;5013441;28;20041;-72
2021/06/27 09:17:25;;;;;;;8.77;8.07;;;;;;;23.60;50.84;101521.75;5013913;28;20041;-72
2021/06/27 09:19:50;;;;;;;8.55;7.00;;;;;;;24.60;48.41;101520.25;4997597;28;20076;-80
2021/06/27 09:22:16;;;;;;;9.18;8.27;;;;;;;23.34;51.62;101524.13;5013667;28;20108;-75
2021/06/27 09:24:43;;;;;;;8.63;7.70;;;;;;;23.72;51.46;101513.03;5013698;28;20154;-73
2021/06/27 09:27:20;;;;;;;7.75;7.15;;;;;;;23.87;49.30;101526.41;5013387;28;20032;-73
2021/06/27 09:29:46;;;;;;;6.90;6.50;;;;;;;23.30;50.65;101517.22;4997390;28;20315;-77
2021/06/27 09:32:22;;;;;;;6.72;6.30;;;;;;;23.45;50.29;101521.69;5013302;28;20028;-80
2021/06/27 09:34:47;;;;;;;5.85;5.53;;;;;;;23.96;50.01;101515.25;4986629;28;20026;-82
2021/06/27 09:37:14;;;;;;;6.57;6.18;;;;;;;24.20;48.90;101504.03;5018282;28;20030;-77
2021/06/27 09:39:53;;;;;;;7.05;6.45;;;;;;;23.42;49.51;101515.69;5031283;28;20048;-76
2021/06/27 09:42:19;;;;;;;8.10;7.60;;;;;;;22.90;49.79;101511.47;5006401;28;20033;-71
2021/06/27 09:44:58;;;;;;;5.88;5.47;;;;;;;23.65;48.72;101517.00;5010413;28;20036;-74
2021/06/27 09:47:24;;;;;;;6.57;6.07;;;;;;;23.91;49.12;101517.31;5010948;28;20182;-72
2021/06/27 09:49:49;;;;;;;5.10;4.70;;;;;;;23.77;47.54;101526.09;5012319;28;20025;-72
2021/06/27 09:52:14;;;;;;;5.93;5.53;;;;;;;23.07;49.37;101527.38;5012065;28;20304;-72
2021/06/27 09:54:41;;;;;;;5.75;5.25;;;;;;;23.52;49.29;101522.22;5011447;28;20022;-73
2021/06/27 09:57:07;;;;;;;5.80;5.28;;;;;;;23.80;49.04;101523.25;5012754;28;20454;-73
2021/06/27 09:59:38;;;;;;;6.20;5.75;;;;;;;24.04;48.28;101517.47;5011631;28;20033;-72
2021/06/27 10:02:04;;;;;;;7.05;6.45;;;;;;;23.82;47.90;101520.50;5012456;28;20022;-72
2021/06/27 10:04:34;;;;;;;6.35;5.78;;;;;;;23.50;49.97;101517.91;5011713;28;20036;-72
2021/06/27 10:07:01;;;;;;;5.85;5.35;;;;;;;23.70;49.94;101525.59;5012442;28;20026;-72
2021/06/27 10:09:32;;;;;;;6.97;6.32;;;;;;;23.38;50.47;101520.34;5011709;28;20098;-72
2021/06/27 10:12:05;;;;;;;7.60;7.00;;;;;;;23.50;49.94;101518.75;5011867;28;20026;-72
2021/06/27 10:14:33;;;;;;;8.73;7.90;;;;;;;23.02;50.41;101518.78;5013083;28;20104;-72
2021/06/27 10:17:03;;;;;;;8.00;7.30;;;;;;;23.13;50.11;101521.72;5013571;28;20024;-72
2021/06/27 10:19:29;;;;;;;7.82;7.28;;;;;;;22.98;50.19;101506.56;5012759;28;20029;-72
2021/06/27 10:21:55;;;;;;;6.70;6.28;;;;;;;23.21;50.73;101515.13;5011770;28;20018;-73
2021/06/27 10:24:21;;;;;;;7.50;6.90;;;;;;;23.48;49.34;101511.78;5011541;28;20072;-69
2021/06/27 10:26:47;;;;;;;5.90;5.43;;;;;;;23.60;49.46;101514.63;4996138;28;20374;-68
2021/06/27 10:29:13;;;;;;;7.43;6.75;;;;;;;24.17;48.03;101521.06;5012528;28;20100;-74
2021/06/27 10:31:39;;;;;;;7.68;6.63;;;;;;;24.27;48.35;101513.38;5012160;28;20028;-73
2021/06/27 10:34:06;;;;;;;6.30;5.90;;;;;;;25.13;44.62;101507.97;5010247;28;20030;-71
2021/06/27 10:36:38;;;;;;;5.80;5.30;;;;;;;24.99;45.11;101505.34;5012160;28;20032;-71
2021/06/27 10:39:08;;;;;;;4.93;4.63;;;;;;;25.01;45.22;101503.44;4995289;28;20053;-73
2021/06/27 10:42:02;;;;;;;4.95;4.55;;;;;;;25.63;44.03;101502.09;5012330;28;20122;-71
2021/06/27 10:44:57;;;;;;;4.60;4.30;;;;;;;25.86;42.42;101494.31;5007671;28;20087;-72
2021/06/27 10:47:30;;;;;;;4.82;4.53;;;;;;;26.24;40.37;101491.69;5009726;28;20033;-73
2021/06/27 10:49:56;;;;;;;4.65;4.35;;;;;;;25.55;42.98;101488.38;5012339;28;20034;-70
2021/06/27 10:52:23;;;;;;;4.30;4.00;;;;;;;24.79;45.79;101491.44;5011355;28;20026;-71
2021/06/27 10:55:15;;;;;;;4.45;4.22;;;;;;;24.44;45.66;101489.16;5011990;28;20029;-71
2021/06/27 10:58:13;;;;;;;4.40;4.00;;;;;;;24.78;43.48;101480.88;5017081;28;20022;-77
2021/06/27 11:00:55;;;;;;;4.05;3.85;;;;;;;25.16;45.07;101484.69;5002296;28;20176;-78
2021/06/27 11:03:42;;;;;;;3.60;3.40;;;;;;;26.99;37.74;101479.25;5013249;28;20025;-77
2021/06/27 11:06:16;;;;;;;3.47;3.28;;;;;;;28.59;35.62;101471.53;5012684;28;20537;-76
2021/06/27 11:08:50;;;;;;;3.60;3.40;;;;;;;27.94;35.25;101470.38;5024573;28;20026;-80
2021/06/27 11:11:19;;;;;;;3.33;3.13;;;;;;;28.88;35.71;101470.16;5021954;28;20021;-81
2021/06/27 11:14:04;;;;;;;3.38;3.17;;;;;;;26.21;41.65;101465.13;5013035;28;20037;-74
2021/06/27 11:16:30;;;;;;;3.38;3.28;;;;;;;28.16;35.94;101464.22;5011998;28;20025;-77
2021/06/27 11:18:55;;;;;;;3.20;3.05;;;;;;;27.07;38.88;101476.88;5011171;28;20033;-71